sensor_id;sensor_type;location;lat;lon;timestamp;P1;durP1;ratioP1;P2;durP2;ratioP2
54787;SDS011;59598;48.112;16.280;2023-01-10T00:01:19;3.47;;;2.53;;
54787;SDS011;59598;48.112;16.280;2023-01-10T00:03:50;5.35;;;3.15;;
54787;SDS011;59598;48.112;16.280;2023-01-10T00:06:24;7.82;;;3.45;;
54787;SDS011;59598;48.112;16.280;2023-01-10T00:08:58;3.47;;;2.47;;
54787;SDS011;59598;48.112;16.280;2023-01-10T00:11:29;4.40;;;2.83;;
54787;SDS011;59598;48.112;16.280;2023-01-10T00:14:21;3.50;;;3.05;;
54787;SDS011;59598;48.112;16.280;2023-01-10T00:16:55;4.97;;;3.30;;
54787;SDS011;59598;48.112;16.280;2023-01-10T00:19:27;6.15;;;3.03;;
54787;SDS011;59598;48.112;16.280;2023-01-10T00:21:58;5.80;;;3.55;;
54787;SDS011;59598;48.112;16.280;2023-01-10T00:24:35;4.70;;;3.20;;
54787;SDS011;59598;48.112;16.280;2023-01-10T00:27:09;5.72;;;3.63;;
54787;SDS011;59598;48.112;16.280;2023-01-10T00:29:42;6.90;;;3.17;;
54787;SDS011;59598;48.112;16.280;2023-01-10T00:32:17;4.45;;;3.28;;
54787;SDS011;59598;48.112;16.280;2023-01-10T00:35:13;10.20;;;3.90;;
54787;SDS011;59598;48.112;16.280;2023-01-10T00:37:49;6.57;;;3.30;;
54787;SDS011;59598;48.112;16.280;2023-01-10T00:40:33;3.28;;;2.63;;
54787;SDS011;59598;48.112;16.280;2023-01-10T00:43:04;4.40;;;3.00;;
54787;SDS011;59598;48.112;16.280;2023-01-10T00:45:59;4.05;;;3.08;;
54787;SDS011;59598;48.112;16.280;2023-01-10T00:48:32;5.22;;;3.08;;
54787;SDS011;59598;48.112;16.280;2023-01-10T00:51:04;5.93;;;3.45;;
54787;SDS011;59598;48.112;16.280;2023-01-10T00:53:41;4.82;;;3.22;;
54787;SDS011;59598;48.112;16.280;2023-01-10T00:56:12;4.50;;;2.78;;
54787;SDS011;59598;48.112;16.280;2023-01-10T00:58:48;4.45;;;3.10;;
54787;SDS011;59598;48.112;16.280;2023-01-10T01:01:22;7.00;;;3.33;;
54787;SDS011;59598;48.112;16.280;2023-01-10T01:03:55;7.65;;;3.28;;
54787;SDS011;59598;48.112;16.280;2023-01-10T01:06:26;6.85;;;3.72;;
54787;SDS011;59598;48.112;16.280;2023-01-10T01:08:57;6.43;;;3.28;;
54787;SDS011;59598;48.112;16.280;2023-01-10T01:11:31;6.70;;;3.17;;
54787;SDS011;59598;48.112;16.280;2023-01-10T01:14:02;6.28;;;3.97;;
54787;SDS011;59598;48.112;16.280;2023-01-10T01:16:33;9.88;;;3.90;;
54787;SDS011;59598;48.112;16.280;2023-01-10T01:19:04;4.95;;;3.17;;
54787;SDS011;59598;48.112;16.280;2023-01-10T01:21:37;4.43;;;3.17;;
54787;SDS011;59598;48.112;16.280;2023-01-10T01:24:11;5.75;;;3.22;;
54787;SDS011;59598;48.112;16.280;2023-01-10T01:26:52;4.32;;;3.08;;
54787;SDS011;59598;48.112;16.280;2023-01-10T01:29:28;3.90;;;3.30;;
54787;SDS011;59598;48.112;16.280;2023-01-10T01:32:01;5.32;;;3.25;;
54787;SDS011;59598;48.112;16.280;2023-01-10T01:34:38;7.95;;;3.55;;
54787;SDS011;59598;48.112;16.280;2023-01-10T01:37:10;4.97;;;3.17;;
54787;SDS011;59598;48.112;16.280;2023-01-10T01:39:43;5.85;;;3.58;;
54787;SDS011;59598;48.112;16.280;2023-01-10T01:42:19;3.63;;;2.67;;
54787;SDS011;59598;48.112;16.280;2023-01-10T01:47:57;4.93;;;3.10;;
54787;SDS011;59598;48.112;16.280;2023-01-10T01:50:44;5.82;;;3.33;;
54787;SDS011;59598;48.112;16.280;2023-01-10T01:53:19;7.43;;;3.38;;
54787;SDS011;59598;48.112;16.280;2023-01-10T01:56:05;5.57;;;3.28;;
54787;SDS011;59598;48.112;16.280;2023-01-10T01:58:52;4.90;;;2.97;;
54787;SDS011;59598;48.112;16.280;2023-01-10T02:01:29;5.80;;;4.00;;
54787;SDS011;59598;48.112;16.280;2023-01-10T02:04:06;5.38;;;3.38;;
54787;SDS011;59598;48.112;16.280;2023-01-10T02:06:46;6.30;;;3.72;;
54787;SDS011;59598;48.112;16.280;2023-01-10T02:09:36;4.10;;;3.10;;
54787;SDS011;59598;48.112;16.280;2023-01-10T02:12:20;4.68;;;3.30;;
54787;SDS011;59598;48.112;16.280;2023-01-10T02:14:55;5.50;;;3.20;;
54787;SDS011;59598;48.112;16.280;2023-01-10T02:17:30;7.68;;;3.10;;
54787;SDS011;59598;48.112;16.280;2023-01-10T02:20:03;5.72;;;3.00;;
54787;SDS011;59598;48.112;16.280;2023-01-10T02:40:51;5.18;;;2.20;;
54787;SDS011;59598;48.112;16.280;2023-01-10T02:43:45;7.72;;;2.60;;
54787;SDS011;59598;48.112;16.280;2023-01-10T02:46:31;2.63;;;2.20;;
54787;SDS011;59598;48.112;16.280;2023-01-10T02:49:04;3.72;;;2.72;;
54787;SDS011;59598;48.112;16.280;2023-01-10T02:51:38;2.90;;;2.25;;
54787;SDS011;59598;48.112;16.280;2023-01-10T02:54:15;4.38;;;2.75;;
54787;SDS011;59598;48.112;16.280;2023-01-10T02:57:05;3.33;;;2.25;;
54787;SDS011;59598;48.112;16.280;2023-01-10T03:03:28;3.33;;;2.45;;
54787;SDS011;59598;48.112;16.280;2023-01-10T03:12:09;5.57;;;2.50;;
54787;SDS011;59598;48.112;16.280;2023-01-10T03:14:49;2.70;;;2.47;;
54787;SDS011;59598;48.112;16.280;2023-01-10T03:17:22;2.85;;;2.20;;
54787;SDS011;59598;48.112;16.280;2023-01-10T03:19:59;3.15;;;2.20;;
54787;SDS011;59598;48.112;16.280;2023-01-10T03:22:37;2.38;;;2.00;;
54787;SDS011;59598;48.112;16.280;2023-01-10T03:25:18;2.95;;;2.05;;
54787;SDS011;59598;48.112;16.280;2023-01-10T03:28:09;2.60;;;1.95;;
54787;SDS011;59598;48.112;16.280;2023-01-10T03:30:51;5.40;;;2.85;;
54787;SDS011;59598;48.112;16.280;2023-01-10T03:33:28;5.30;;;2.38;;
54787;SDS011;59598;48.112;16.280;2023-01-10T03:39:03;2.20;;;1.88;;
54787;SDS011;59598;48.112;16.280;2023-01-10T03:41:49;2.65;;;2.35;;
54787;SDS011;59598;48.112;16.280;2023-01-10T03:50:05;3.22;;;2.35;;
54787;SDS011;59598;48.112;16.280;2023-01-10T03:52:38;3.80;;;2.03;;
54787;SDS011;59598;48.112;16.280;2023-01-10T03:55:20;2.53;;;2.22;;
54787;SDS011;59598;48.112;16.280;2023-01-10T03:57:57;2.08;;;1.85;;
54787;SDS011;59598;48.112;16.280;2023-01-10T04:00:28;3.28;;;2.38;;
54787;SDS011;59598;48.112;16.280;2023-01-10T04:03:00;4.28;;;2.58;;
54787;SDS011;59598;48.112;16.280;2023-01-10T04:05:34;2.70;;;2.20;;
54787;SDS011;59598;48.112;16.280;2023-01-10T04:08:11;3.83;;;2.25;;
54787;SDS011;59598;48.112;16.280;2023-01-10T04:10:43;3.92;;;2.08;;
54787;SDS011;59598;48.112;16.280;2023-01-10T04:13:15;2.70;;;2.17;;
54787;SDS011;59598;48.112;16.280;2023-01-10T04:15:51;3.22;;;2.45;;
54787;SDS011;59598;48.112;16.280;2023-01-10T04:18:24;2.97;;;2.15;;
54787;SDS011;59598;48.112;16.280;2023-01-10T04:20:55;4.60;;;2.45;;
54787;SDS011;59598;48.112;16.280;2023-01-10T04:23:29;3.97;;;2.15;;
54787;SDS011;59598;48.112;16.280;2023-01-10T04:26:00;2.20;;;1.95;;
54787;SDS011;59598;48.112;16.280;2023-01-10T04:28:33;2.33;;;2.13;;
54787;SDS011;59598;48.112;16.280;2023-01-10T04:31:05;4.00;;;2.70;;
54787;SDS011;59598;48.112;16.280;2023-01-10T04:33:36;8.38;;;2.33;;
54787;SDS011;59598;48.112;16.280;2023-01-10T04:36:13;4.95;;;3.65;;
54787;SDS011;59598;48.112;16.280;2023-01-10T04:38:47;3.88;;;2.85;;
54787;SDS011;59598;48.112;16.280;2023-01-10T04:41:18;6.00;;;2.88;;
54787;SDS011;59598;48.112;16.280;2023-01-10T04:43:49;6.28;;;2.90;;
54787;SDS011;59598;48.112;16.280;2023-01-10T04:46:21;2.63;;;2.38;;
54787;SDS011;59598;48.112;16.280;2023-01-10T04:51:29;4.30;;;3.28;;
54787;SDS011;59598;48.112;16.280;2023-01-10T04:54:05;2.67;;;2.45;;
54787;SDS011;59598;48.112;16.280;2023-01-10T04:56:37;4.88;;;3.15;;
54787;SDS011;59598;48.112;16.280;2023-01-10T04:59:12;3.17;;;2.67;;
54787;SDS011;59598;48.112;16.280;2023-01-10T05:01:45;4.63;;;3.38;;
54787;SDS011;59598;48.112;16.280;2023-01-10T05:04:18;4.20;;;3.60;;
54787;SDS011;59598;48.112;16.280;2023-01-10T05:06:50;8.23;;;4.78;;
54787;SDS011;59598;48.112;16.280;2023-01-10T05:09:22;6.50;;;4.20;;
54787;SDS011;59598;48.112;16.280;2023-01-10T05:11:53;6.45;;;3.78;;
54787;SDS011;59598;48.112;16.280;2023-01-10T05:14:25;7.28;;;4.20;;
54787;SDS011;59598;48.112;16.280;2023-01-10T05:16:58;5.63;;;4.07;;
54787;SDS011;59598;48.112;16.280;2023-01-10T05:19:34;4.30;;;3.25;;
54787;SDS011;59598;48.112;16.280;2023-01-10T05:22:06;5.47;;;3.40;;
54787;SDS011;59598;48.112;16.280;2023-01-10T05:24:42;4.20;;;3.17;;
54787;SDS011;59598;48.112;16.280;2023-01-10T05:27:16;4.40;;;3.30;;
54787;SDS011;59598;48.112;16.280;2023-01-10T05:29:52;4.90;;;4.03;;
54787;SDS011;59598;48.112;16.280;2023-01-10T05:32:29;4.93;;;2.92;;
54787;SDS011;59598;48.112;16.280;2023-01-10T05:35:03;6.18;;;3.50;;
54787;SDS011;59598;48.112;16.280;2023-01-10T05:37:37;3.38;;;3.05;;
54787;SDS011;59598;48.112;16.280;2023-01-10T05:40:10;4.53;;;2.80;;
54787;SDS011;59598;48.112;16.280;2023-01-10T05:42:46;6.18;;;3.10;;
54787;SDS011;59598;48.112;16.280;2023-01-10T05:45:21;9.75;;;3.47;;
54787;SDS011;59598;48.112;16.280;2023-01-10T05:47:55;2.55;;;2.28;;
54787;SDS011;59598;48.112;16.280;2023-01-10T05:50:32;3.03;;;2.42;;
54787;SDS011;59598;48.112;16.280;2023-01-10T05:53:08;2.83;;;2.30;;
54787;SDS011;59598;48.112;16.280;2023-01-10T05:55:39;5.45;;;2.70;;
54787;SDS011;59598;48.112;16.280;2023-01-10T05:58:10;2.45;;;2.05;;
54787;SDS011;59598;48.112;16.280;2023-01-10T06:00:44;5.13;;;2.28;;
54787;SDS011;59598;48.112;16.280;2023-01-10T06:03:16;3.35;;;1.95;;
54787;SDS011;59598;48.112;16.280;2023-01-10T06:05:49;2.88;;;2.03;;
54787;SDS011;59598;48.112;16.280;2023-01-10T06:08:22;1.98;;;1.77;;
54787;SDS011;59598;48.112;16.280;2023-01-10T06:10:56;2.25;;;1.88;;
54787;SDS011;59598;48.112;16.280;2023-01-10T06:13:28;2.50;;;2.10;;
54787;SDS011;59598;48.112;16.280;2023-01-10T06:16:02;3.10;;;2.33;;
54787;SDS011;59598;48.112;16.280;2023-01-10T06:18:40;2.25;;;2.05;;
54787;SDS011;59598;48.112;16.280;2023-01-10T06:21:11;4.88;;;2.70;;
54787;SDS011;59598;48.112;16.280;2023-01-10T06:23:44;4.28;;;2.83;;
54787;SDS011;59598;48.112;16.280;2023-01-10T06:26:17;4.37;;;3.40;;
54787;SDS011;59598;48.112;16.280;2023-01-10T06:28:49;6.45;;;2.83;;
54787;SDS011;59598;48.112;16.280;2023-01-10T06:31:20;2.65;;;2.38;;
54787;SDS011;59598;48.112;16.280;2023-01-10T06:33:51;3.60;;;2.78;;
54787;SDS011;59598;48.112;16.280;2023-01-10T06:36:27;2.92;;;2.38;;
54787;SDS011;59598;48.112;16.280;2023-01-10T06:39:01;3.00;;;2.50;;
54787;SDS011;59598;48.112;16.280;2023-01-10T06:41:32;3.80;;;2.70;;
54787;SDS011;59598;48.112;16.280;2023-01-10T06:44:08;3.67;;;2.80;;
54787;SDS011;59598;48.112;16.280;2023-01-10T06:46:40;3.38;;;3.00;;
54787;SDS011;59598;48.112;16.280;2023-01-10T06:49:17;3.38;;;2.28;;
54787;SDS011;59598;48.112;16.280;2023-01-10T06:51:51;3.72;;;2.42;;
54787;SDS011;59598;48.112;16.280;2023-01-10T06:54:28;3.05;;;2.55;;
54787;SDS011;59598;48.112;16.280;2023-01-10T06:57:01;6.63;;;2.55;;
54787;SDS011;59598;48.112;16.280;2023-01-10T06:59:35;3.53;;;2.47;;
54787;SDS011;59598;48.112;16.280;2023-01-10T07:02:08;5.50;;;2.70;;
54787;SDS011;59598;48.112;16.280;2023-01-10T07:04:41;4.78;;;2.38;;
54787;SDS011;59598;48.112;16.280;2023-01-10T07:07:17;2.33;;;1.90;;
54787;SDS011;59598;48.112;16.280;2023-01-10T07:09:51;3.47;;;2.60;;
54787;SDS011;59598;48.112;16.280;2023-01-10T07:12:22;3.03;;;2.38;;
54787;SDS011;59598;48.112;16.280;2023-01-10T07:14:53;3.35;;;2.40;;
54787;SDS011;59598;48.112;16.280;2023-01-10T07:17:27;2.40;;;2.17;;
54787;SDS011;59598;48.112;16.280;2023-01-10T07:19:59;3.53;;;2.55;;
54787;SDS011;59598;48.112;16.280;2023-01-10T07:22:30;4.35;;;2.78;;
54787;SDS011;59598;48.112;16.280;2023-01-10T07:25:02;2.28;;;2.08;;
54787;SDS011;59598;48.112;16.280;2023-01-10T07:30:12;4.00;;;2.30;;
54787;SDS011;59598;48.112;16.280;2023-01-10T07:32:51;4.80;;;2.30;;
54787;SDS011;59598;48.112;16.280;2023-01-10T07:35:26;3.72;;;2.28;;
54787;SDS011;59598;48.112;16.280;2023-01-10T07:38:00;2.92;;;1.85;;
54787;SDS011;59598;48.112;16.280;2023-01-10T07:40:35;2.80;;;1.85;;
54787;SDS011;59598;48.112;16.280;2023-01-10T07:43:06;3.58;;;2.10;;
54787;SDS011;59598;48.112;16.280;2023-01-10T07:45:43;3.90;;;2.03;;
54787;SDS011;59598;48.112;16.280;2023-01-10T07:48:14;3.80;;;2.33;;
54787;SDS011;59598;48.112;16.280;2023-01-10T07:50:47;3.65;;;2.50;;
54787;SDS011;59598;48.112;16.280;2023-01-10T07:53:25;3.15;;;2.30;;
54787;SDS011;59598;48.112;16.280;2023-01-10T07:55:58;3.90;;;2.60;;
54787;SDS011;59598;48.112;16.280;2023-01-10T07:58:33;3.28;;;2.10;;
54787;SDS011;59598;48.112;16.280;2023-01-10T08:01:05;5.95;;;2.83;;
54787;SDS011;59598;48.112;16.280;2023-01-10T08:03:40;6.20;;;2.15;;
54787;SDS011;59598;48.112;16.280;2023-01-10T08:06:11;3.33;;;2.28;;
54787;SDS011;59598;48.112;16.280;2023-01-10T08:08:42;2.63;;;2.00;;
54787;SDS011;59598;48.112;16.280;2023-01-10T08:11:18;2.72;;;2.17;;
54787;SDS011;59598;48.112;16.280;2023-01-10T08:13:49;3.42;;;2.60;;
54787;SDS011;59598;48.112;16.280;2023-01-10T08:16:23;2.50;;;1.83;;
54787;SDS011;59598;48.112;16.280;2023-01-10T08:18:54;2.65;;;1.92;;
54787;SDS011;59598;48.112;16.280;2023-01-10T08:21:25;3.58;;;2.10;;
54787;SDS011;59598;48.112;16.280;2023-01-10T08:23:59;5.18;;;2.95;;
54787;SDS011;59598;48.112;16.280;2023-01-10T08:26:32;3.20;;;2.35;;
54787;SDS011;59598;48.112;16.280;2023-01-10T08:29:04;2.88;;;2.60;;
54787;SDS011;59598;48.112;16.280;2023-01-10T08:31:40;4.03;;;2.53;;
54787;SDS011;59598;48.112;16.280;2023-01-10T08:34:12;4.55;;;2.30;;
54787;SDS011;59598;48.112;16.280;2023-01-10T08:36:43;4.50;;;2.72;;
54787;SDS011;59598;48.112;16.280;2023-01-10T08:39:16;5.97;;;2.35;;
54787;SDS011;59598;48.112;16.280;2023-01-10T08:41:51;5.63;;;2.08;;
54787;SDS011;59598;48.112;16.280;2023-01-10T08:44:22;3.92;;;1.98;;
54787;SDS011;59598;48.112;16.280;2023-01-10T08:46:56;3.10;;;2.15;;
54787;SDS011;59598;48.112;16.280;2023-01-10T08:49:28;3.13;;;2.10;;
54787;SDS011;59598;48.112;16.280;2023-01-10T08:52:01;2.33;;;2.13;;
54787;SDS011;59598;48.112;16.280;2023-01-10T08:54:35;4.22;;;2.35;;
54787;SDS011;59598;48.112;16.280;2023-01-10T08:57:09;2.57;;;2.23;;
54787;SDS011;59598;48.112;16.280;2023-01-10T08:59:43;3.25;;;2.15;;
54787;SDS011;59598;48.112;16.280;2023-01-10T09:02:16;3.35;;;2.50;;
54787;SDS011;59598;48.112;16.280;2023-01-10T09:04:49;3.90;;;2.63;;
54787;SDS011;59598;48.112;16.280;2023-01-10T09:07:20;3.83;;;2.70;;
54787;SDS011;59598;48.112;16.280;2023-01-10T09:09:57;1.92;;;1.70;;
54787;SDS011;59598;48.112;16.280;2023-01-10T09:12:28;4.28;;;2.67;;
54787;SDS011;59598;48.112;16.280;2023-01-10T09:15:18;5.10;;;2.10;;
54787;SDS011;59598;48.112;16.280;2023-01-10T09:17:51;3.70;;;2.30;;
54787;SDS011;59598;48.112;16.280;2023-01-10T09:20:27;2.47;;;1.92;;
54787;SDS011;59598;48.112;16.280;2023-01-10T09:23:03;2.45;;;1.95;;
54787;SDS011;59598;48.112;16.280;2023-01-10T09:25:39;7.10;;;4.40;;
54787;SDS011;59598;48.112;16.280;2023-01-10T09:28:10;2.28;;;1.75;;
54787;SDS011;59598;48.112;16.280;2023-01-10T09:30:43;3.78;;;2.50;;
54787;SDS011;59598;48.112;16.280;2023-01-10T09:33:15;3.83;;;2.33;;
54787;SDS011;59598;48.112;16.280;2023-01-10T09:35:49;4.70;;;2.40;;
54787;SDS011;59598;48.112;16.280;2023-01-10T09:38:20;3.00;;;2.25;;
54787;SDS011;59598;48.112;16.280;2023-01-10T09:49:57;1.98;;;1.75;;
54787;SDS011;59598;48.112;16.280;2023-01-10T09:52:54;3.25;;;2.10;;
54787;SDS011;59598;48.112;16.280;2023-01-10T09:55:32;3.25;;;1.88;;
54787;SDS011;59598;48.112;16.280;2023-01-10T09:58:08;2.75;;;2.22;;
54787;SDS011;59598;48.112;16.280;2023-01-10T10:00:49;2.65;;;1.90;;
54787;SDS011;59598;48.112;16.280;2023-01-10T10:03:28;3.45;;;1.60;;
54787;SDS011;59598;48.112;16.280;2023-01-10T10:06:10;2.45;;;1.77;;
54787;SDS011;59598;48.112;16.280;2023-01-10T10:08:48;2.08;;;1.77;;
54787;SDS011;59598;48.112;16.280;2023-01-10T10:17:06;8.10;;;2.17;;
54787;SDS011;59598;48.112;16.280;2023-01-10T10:27:39;4.15;;;1.77;;
54787;SDS011;59598;48.112;16.280;2023-01-10T10:30:44;1.98;;;1.60;;
54787;SDS011;59598;48.112;16.280;2023-01-10T10:36:22;2.30;;;1.92;;
54787;SDS011;59598;48.112;16.280;2023-01-10T10:38:57;2.75;;;1.85;;
54787;SDS011;59598;48.112;16.280;2023-01-10T10:41:35;2.22;;;2.00;;
54787;SDS011;59598;48.112;16.280;2023-01-10T10:44:31;3.10;;;1.90;;
54787;SDS011;59598;48.112;16.280;2023-01-10T10:47:16;2.35;;;2.10;;
54787;SDS011;59598;48.112;16.280;2023-01-10T10:49:53;4.00;;;2.30;;
54787;SDS011;59598;48.112;16.280;2023-01-10T10:52:30;2.55;;;2.13;;
54787;SDS011;59598;48.112;16.280;2023-01-10T10:55:11;5.20;;;1.90;;
54787;SDS011;59598;48.112;16.280;2023-01-10T10:57:45;2.85;;;1.95;;
54787;SDS011;59598;48.112;16.280;2023-01-10T11:00:22;3.15;;;2.00;;
54787;SDS011;59598;48.112;16.280;2023-01-10T11:05:55;4.47;;;1.83;;
54787;SDS011;59598;48.112;16.280;2023-01-10T11:08:29;2.65;;;2.28;;
54787;SDS011;59598;48.112;16.280;2023-01-10T11:11:01;1.80;;;1.45;;
54787;SDS011;59598;48.112;16.280;2023-01-10T11:13:42;4.80;;;1.88;;
54787;SDS011;59598;48.112;16.280;2023-01-10T11:21:59;2.15;;;1.60;;
54787;SDS011;59598;48.112;16.280;2023-01-10T11:24:40;4.28;;;1.73;;
54787;SDS011;59598;48.112;16.280;2023-01-10T11:27:28;2.70;;;1.73;;
54787;SDS011;59598;48.112;16.280;2023-01-10T11:30:02;5.30;;;1.70;;
54787;SDS011;59598;48.112;16.280;2023-01-10T11:32:38;3.13;;;1.70;;
54787;SDS011;59598;48.112;16.280;2023-01-10T11:35:29;4.40;;;1.80;;
54787;SDS011;59598;48.112;16.280;2023-01-10T11:38:17;1.73;;;1.20;;
54787;SDS011;59598;48.112;16.280;2023-01-10T11:41:03;1.85;;;1.40;;
54787;SDS011;59598;48.112;16.280;2023-01-10T11:46:58;3.17;;;1.55;;
54787;SDS011;59598;48.112;16.280;2023-01-10T11:49:36;2.53;;;1.50;;
54787;SDS011;59598;48.112;16.280;2023-01-10T11:52:20;1.63;;;1.30;;
54787;SDS011;59598;48.112;16.280;2023-01-10T11:54:57;3.50;;;2.00;;
54787;SDS011;59598;48.112;16.280;2023-01-10T11:57:30;2.00;;;1.50;;
54787;SDS011;59598;48.112;16.280;2023-01-10T12:00:03;2.78;;;1.75;;
54787;SDS011;59598;48.112;16.280;2023-01-10T12:02:44;1.20;;;1.10;;
54787;SDS011;59598;48.112;16.280;2023-01-10T12:05:19;1.83;;;1.48;;
54787;SDS011;59598;48.112;16.280;2023-01-10T12:07:56;1.73;;;1.30;;
54787;SDS011;59598;48.112;16.280;2023-01-10T12:10:37;1.63;;;1.50;;
54787;SDS011;59598;48.112;16.280;2023-01-10T12:13:12;2.15;;;1.58;;
54787;SDS011;59598;48.112;16.280;2023-01-10T12:15:48;2.78;;;1.60;;
54787;SDS011;59598;48.112;16.280;2023-01-10T12:18:19;1.42;;;1.00;;
54787;SDS011;59598;48.112;16.280;2023-01-10T12:20:50;3.35;;;1.40;;
54787;SDS011;59598;48.112;16.280;2023-01-10T12:23:29;1.65;;;1.30;;
54787;SDS011;59598;48.112;16.280;2023-01-10T12:26:04;1.45;;;1.27;;
54787;SDS011;59598;48.112;16.280;2023-01-10T12:28:49;2.45;;;1.35;;
54787;SDS011;59598;48.112;16.280;2023-01-10T12:31:26;3.20;;;1.25;;
54787;SDS011;59598;48.112;16.280;2023-01-10T12:34:03;1.50;;;1.40;;
54787;SDS011;59598;48.112;16.280;2023-01-10T12:36:48;1.73;;;1.40;;
54787;SDS011;59598;48.112;16.280;2023-01-10T12:39:35;1.88;;;1.10;;
54787;SDS011;59598;48.112;16.280;2023-01-10T12:42:18;1.17;;;1.08;;
54787;SDS011;59598;48.112;16.280;2023-01-10T12:46:01;1.30;;;1.20;;
54787;SDS011;59598;48.112;16.280;2023-01-10T12:51:27;1.30;;;1.20;;
54787;SDS011;59598;48.112;16.280;2023-01-10T12:54:02;1.20;;;1.10;;
54787;SDS011;59598;48.112;16.280;2023-01-10T12:56:41;1.60;;;1.50;;
54787;SDS011;59598;48.112;16.280;2023-01-10T12:59:36;1.38;;;1.25;;
54787;SDS011;59598;48.112;16.280;2023-01-10T13:02:13;5.75;;;2.15;;
54787;SDS011;59598;48.112;16.280;2023-01-10T13:04:50;1.67;;;1.27;;
54787;SDS011;59598;48.112;16.280;2023-01-10T13:07:26;1.27;;;1.17;;
54787;SDS011;59598;48.112;16.280;2023-01-10T13:10:04;1.58;;;1.17;;
54787;SDS011;59598;48.112;16.280;2023-01-10T13:12:43;2.47;;;1.20;;
54787;SDS011;59598;48.112;16.280;2023-01-10T13:18:01;2.03;;;1.10;;
54787;SDS011;59598;48.112;16.280;2023-01-10T13:20:41;1.23;;;1.13;;
54787;SDS011;59598;48.112;16.280;2023-01-10T13:23:22;2.30;;;1.30;;
54787;SDS011;59598;48.112;16.280;2023-01-10T13:26:06;2.17;;;1.40;;
54787;SDS011;59598;48.112;16.280;2023-01-10T13:28:39;2.70;;;1.17;;
54787;SDS011;59598;48.112;16.280;2023-01-10T13:34:06;2.00;;;1.10;;
54787;SDS011;59598;48.112;16.280;2023-01-10T13:36:50;2.50;;;1.27;;
54787;SDS011;59598;48.112;16.280;2023-01-10T13:39:35;1.75;;;1.30;;
54787;SDS011;59598;48.112;16.280;2023-01-10T14:01:27;1.50;;;1.00;;
54787;SDS011;59598;48.112;16.280;2023-01-10T14:04:24;1.45;;;0.80;;
54787;SDS011;59598;48.112;16.280;2023-01-10T14:07:47;1.30;;;1.20;;
54787;SDS011;59598;48.112;16.280;2023-01-10T14:10:24;2.95;;;1.98;;
54787;SDS011;59598;48.112;16.280;2023-01-10T14:15:43;1.23;;;1.13;;
54787;SDS011;59598;48.112;16.280;2023-01-10T14:18:21;1.83;;;1.05;;
54787;SDS011;59598;48.112;16.280;2023-01-10T14:21:02;0.95;;;0.88;;
54787;SDS011;59598;48.112;16.280;2023-01-10T14:23:48;0.90;;;0.80;;
54787;SDS011;59598;48.112;16.280;2023-01-10T14:29:13;1.90;;;1.40;;
54787;SDS011;59598;48.112;16.280;2023-01-10T14:31:48;1.23;;;0.90;;
54787;SDS011;59598;48.112;16.280;2023-01-10T14:34:31;1.00;;;0.90;;
54787;SDS011;59598;48.112;16.280;2023-01-10T14:37:07;1.42;;;1.00;;
54787;SDS011;59598;48.112;16.280;2023-01-10T14:39:53;1.20;;;1.10;;
54787;SDS011;59598;48.112;16.280;2023-01-10T14:42:25;1.10;;;0.98;;
54787;SDS011;59598;48.112;16.280;2023-01-10T14:45:03;3.05;;;1.25;;
54787;SDS011;59598;48.112;16.280;2023-01-10T14:47:49;1.27;;;1.17;;
54787;SDS011;59598;48.112;16.280;2023-01-10T14:50:21;2.42;;;1.00;;
54787;SDS011;59598;48.112;16.280;2023-01-10T14:53:04;2.80;;;1.10;;
54787;SDS011;59598;48.112;16.280;2023-01-10T14:55:40;1.23;;;1.13;;
54787;SDS011;59598;48.112;16.280;2023-01-10T14:58:16;1.08;;;0.98;;
54787;SDS011;59598;48.112;16.280;2023-01-10T15:00:52;1.52;;;1.20;;
54787;SDS011;59598;48.112;16.280;2023-01-10T15:03:28;1.60;;;1.25;;
54787;SDS011;59598;48.112;16.280;2023-01-10T15:06:02;1.58;;;1.40;;
54787;SDS011;59598;48.112;16.280;2023-01-10T15:08:33;1.30;;;1.20;;
54787;SDS011;59598;48.112;16.280;2023-01-10T15:11:05;1.75;;;1.40;;
54787;SDS011;59598;48.112;16.280;2023-01-10T15:13:52;2.95;;;1.38;;
54787;SDS011;59598;48.112;16.280;2023-01-10T15:16:31;1.63;;;1.48;;
54787;SDS011;59598;48.112;16.280;2023-01-10T15:19:04;1.38;;;1.20;;
54787;SDS011;59598;48.112;16.280;2023-01-10T15:21:40;1.92;;;1.40;;
54787;SDS011;59598;48.112;16.280;2023-01-10T15:24:32;1.60;;;1.20;;
54787;SDS011;59598;48.112;16.280;2023-01-10T15:27:10;2.75;;;1.27;;
54787;SDS011;59598;48.112;16.280;2023-01-10T15:29:43;1.20;;;1.10;;
54787;SDS011;59598;48.112;16.280;2023-01-10T15:32:27;1.48;;;1.33;;
54787;SDS011;59598;48.112;16.280;2023-01-10T15:35:09;3.97;;;1.60;;
54787;SDS011;59598;48.112;16.280;2023-01-10T15:37:49;1.75;;;1.30;;
54787;SDS011;59598;48.112;16.280;2023-01-10T15:40:29;3.53;;;2.20;;
54787;SDS011;59598;48.112;16.280;2023-01-10T15:43:17;8.40;;;1.85;;
54787;SDS011;59598;48.112;16.280;2023-01-10T15:45:59;5.35;;;1.90;;
54787;SDS011;59598;48.112;16.280;2023-01-10T15:48:34;3.65;;;1.63;;
54787;SDS011;59598;48.112;16.280;2023-01-10T15:51:11;3.97;;;1.85;;
54787;SDS011;59598;48.112;16.280;2023-01-10T15:56:46;2.47;;;1.58;;
54787;SDS011;59598;48.112;16.280;2023-01-10T15:59:25;3.00;;;1.17;;
54787;SDS011;59598;48.112;16.280;2023-01-10T16:02:29;2.25;;;1.55;;
54787;SDS011;59598;48.112;16.280;2023-01-10T16:05:08;1.98;;;1.45;;
54787;SDS011;59598;48.112;16.280;2023-01-10T16:07:49;7.53;;;2.42;;
54787;SDS011;59598;48.112;16.280;2023-01-10T16:10:21;1.98;;;1.33;;
54787;SDS011;59598;48.112;16.280;2023-01-10T16:13:10;3.10;;;1.25;;
54787;SDS011;59598;48.112;16.280;2023-01-10T16:16:01;2.58;;;1.33;;
54787;SDS011;59598;48.112;16.280;2023-01-10T16:18:43;2.17;;;1.35;;
54787;SDS011;59598;48.112;16.280;2023-01-10T16:21:14;3.05;;;1.65;;
54787;SDS011;59598;48.112;16.280;2023-01-10T16:23:51;3.30;;;1.65;;
54787;SDS011;59598;48.112;16.280;2023-01-10T16:26:25;2.30;;;2.10;;
54787;SDS011;59598;48.112;16.280;2023-01-10T16:29:01;3.83;;;1.85;;
54787;SDS011;59598;48.112;16.280;2023-01-10T16:31:37;2.95;;;2.05;;
54787;SDS011;59598;48.112;16.280;2023-01-10T16:34:14;2.55;;;2.15;;
54787;SDS011;59598;48.112;16.280;2023-01-10T16:36:47;2.95;;;1.77;;
54787;SDS011;59598;48.112;16.280;2023-01-10T16:39:20;2.60;;;2.40;;
54787;SDS011;59598;48.112;16.280;2023-01-10T16:41:58;3.70;;;2.17;;
54787;SDS011;59598;48.112;16.280;2023-01-10T16:44:48;5.78;;;2.00;;
54787;SDS011;59598;48.112;16.280;2023-01-10T16:47:24;3.50;;;2.35;;
54787;SDS011;59598;48.112;16.280;2023-01-10T16:50:00;5.15;;;2.47;;
54787;SDS011;59598;48.112;16.280;2023-01-10T16:52:34;2.95;;;2.15;;
54787;SDS011;59598;48.112;16.280;2023-01-10T16:55:11;3.53;;;2.55;;
54787;SDS011;59598;48.112;16.280;2023-01-10T16:57:46;4.15;;;1.92;;
54787;SDS011;59598;48.112;16.280;2023-01-10T17:00:18;4.30;;;2.90;;
54787;SDS011;59598;48.112;16.280;2023-01-10T17:02:55;5.78;;;2.55;;
54787;SDS011;59598;48.112;16.280;2023-01-10T17:05:28;3.25;;;2.40;;
54787;SDS011;59598;48.112;16.280;2023-01-10T17:07:59;3.47;;;2.50;;
54787;SDS011;59598;48.112;16.280;2023-01-10T17:10:33;2.95;;;2.35;;
54787;SDS011;59598;48.112;16.280;2023-01-10T17:13:05;3.50;;;2.17;;
54787;SDS011;59598;48.112;16.280;2023-01-10T17:15:41;4.53;;;2.70;;
54787;SDS011;59598;48.112;16.280;2023-01-10T17:18:12;5.05;;;2.50;;
54787;SDS011;59598;48.112;16.280;2023-01-10T17:20:44;5.63;;;2.42;;
54787;SDS011;59598;48.112;16.280;2023-01-10T17:23:15;5.65;;;2.70;;
54787;SDS011;59598;48.112;16.280;2023-01-10T17:25:46;3.75;;;2.67;;
54787;SDS011;59598;48.112;16.280;2023-01-10T17:28:19;4.05;;;2.42;;